createdAt,value
2018-07-06T00:00:44.583Z,24.5
2018-07-06T00:01:34.504Z,24.6
2018-07-06T00:02:24.355Z,24.6
2018-07-06T00:03:14.381Z,24.6
2018-07-06T00:04:05.273Z,24.6
2018-07-06T00:04:54.768Z,24.6
2018-07-06T00:05:45.404Z,24.6
2018-07-06T00:06:35.163Z,24.5
2018-07-06T00:07:25.252Z,24.6
2018-07-06T00:08:14.739Z,24.6
2018-07-06T00:09:04.806Z,24.6
2018-07-06T00:09:55.457Z,24.6
2018-07-06T00:10:45.949Z,24.6
2018-07-06T00:11:35.839Z,24.6
2018-07-06T00:12:26.368Z,24.6
2018-07-06T00:13:15.239Z,24.6
2018-07-06T00:14:04.939Z,24.5
2018-07-06T00:14:55.402Z,24.5
2018-07-06T00:15:45.610Z,24.6
2018-07-06T00:16:35.650Z,24.5
2018-07-06T00:17:25.752Z,24.5
2018-07-06T00:18:16.187Z,24.6
2018-07-06T00:19:05.321Z,24.6
2018-07-06T00:19:56.512Z,24.6
2018-07-06T00:20:46.644Z,24.5
2018-07-06T00:21:36.339Z,24.6
2018-07-06T00:22:26.371Z,24.6
2018-07-06T00:23:16.994Z,24.5
2018-07-06T00:24:06.539Z,24.6
2018-07-06T00:24:56.655Z,24.5
2018-07-06T00:25:45.798Z,24.6
2018-07-06T00:26:36.565Z,24.5
2018-07-06T00:27:25.398Z,24.6
2018-07-06T00:28:17.135Z,24.6
2018-07-06T00:29:06.916Z,24.5
2018-07-06T00:29:57.360Z,24.5
2018-07-06T00:30:47.066Z,24.5
2018-07-06T00:31:37.916Z,24.5
2018-07-06T00:32:27.415Z,24.5
2018-07-06T00:33:17.712Z,24.5
2018-07-06T00:34:07.821Z,24.6
2018-07-06T00:34:57.669Z,24.5
2018-07-06T00:35:47.428Z,24.5
2018-07-06T00:36:38.137Z,24.5
2018-07-06T00:37:27.327Z,24.5
2018-07-06T00:38:16.523Z,24.5
2018-07-06T00:39:08.059Z,24.5
2018-07-06T00:39:58.035Z,24.5
2018-07-06T00:40:48.675Z,24.5
2018-07-06T00:41:38.456Z,24.5
2018-07-06T00:42:27.994Z,24.5
2018-07-06T00:43:17.794Z,24.5
2018-07-06T00:44:07.323Z,24.5
2018-07-06T00:44:58.203Z,24.5
2018-07-06T00:45:48.309Z,24.5
2018-07-06T00:46:38.056Z,24.5
2018-07-06T00:47:28.079Z,24.5
2018-07-06T00:48:18.676Z,24.5
2018-07-06T00:49:08.000Z,24.5
2018-07-06T00:49:58.592Z,24.5
2018-07-06T00:50:48.623Z,24.5
2018-07-06T00:51:38.969Z,24.5
2018-07-06T00:52:29.111Z,24.5
2018-07-06T00:53:17.952Z,24.5
2018-07-06T00:54:08.369Z,24.5
2018-07-06T00:54:59.673Z,24.5
2018-07-06T00:55:48.848Z,24.5
2018-07-06T00:56:39.318Z,24.5
2018-07-06T00:57:28.264Z,24.5
2018-07-06T00:58:19.787Z,24.5
2018-07-06T00:59:08.707Z,24.5
2018-07-06T00:59:59.949Z,24.5
2018-07-06T01:00:49.968Z,24.5
2018-07-06T01:01:40.944Z,24.5
2018-07-06T01:02:28.685Z,24.5
2018-07-06T01:03:20.087Z,24.5
2018-07-06T01:04:09.584Z,24.5
2018-07-06T01:05:00.211Z,24.5
2018-07-06T01:05:48.892Z,24.4
2018-07-06T01:06:40.109Z,24.5
2018-07-06T01:07:30.121Z,24.5
2018-07-06T01:08:20.759Z,24.5
2018-07-06T01:09:10.262Z,24.5
2018-07-06T01:09:59.821Z,24.5
2018-07-06T01:10:49.572Z,24.5
2018-07-06T01:11:40.473Z,24.4
2018-07-06T01:12:30.310Z,24.5
2018-07-06T01:13:20.352Z,24.4
2018-07-06T01:14:10.400Z,24.5
2018-07-06T01:15:01.396Z,24.5
2018-07-06T01:15:50.325Z,24.4
2018-07-06T01:16:40.900Z,24.4
2018-07-06T01:17:30.131Z,24.4
2018-07-06T01:18:20.765Z,24.4
2018-07-06T01:19:11.689Z,24.4
2018-07-06T01:20:01.469Z,24.4
2018-07-06T01:20:50.638Z,24.4
2018-07-06T01:21:40.737Z,24.5
2018-07-06T01:22:31.069Z,24.4
2018-07-06T01:23:20.590Z,24.4
2018-07-06T01:24:10.678Z,24.4
2018-07-06T01:25:01.583Z,24.5
2018-07-06T01:25:51.384Z,24.4
2018-07-06T01:26:41.527Z,24.4
2018-07-06T01:27:31.761Z,24.4
2018-07-06T01:28:21.491Z,24.4
2018-07-06T01:29:11.992Z,24.4
2018-07-06T01:30:01.677Z,24.4
2018-07-06T01:30:51.235Z,24.4
2018-07-06T01:31:42.055Z,24.4
2018-07-06T01:32:31.850Z,24.4
2018-07-06T01:33:21.329Z,24.4
2018-07-06T01:34:11.704Z,24.4
2018-07-06T01:35:01.726Z,24.4
2018-07-06T01:35:51.269Z,24.4
2018-07-06T01:36:41.885Z,24.4
2018-07-06T01:37:32.844Z,24.4
2018-07-06T01:38:21.396Z,24.4
2018-07-06T01:39:12.376Z,24.4
2018-07-06T01:40:02.477Z,24.4
2018-07-06T01:40:53.352Z,24.4
2018-07-06T01:41:42.335Z,24.4
2018-07-06T01:42:32.877Z,24.4
2018-07-06T01:43:22.418Z,24.4
2018-07-06T01:44:13.097Z,24.4
2018-07-06T01:45:01.721Z,24.4
2018-07-06T01:45:52.311Z,24.4
2018-07-06T01:46:43.479Z,24.4
2018-07-06T01:47:32.727Z,24.4
2018-07-06T01:48:22.319Z,24.4
2018-07-06T01:49:11.823Z,24.4
2018-07-06T01:50:03.778Z,24.4
2018-07-06T01:50:52.569Z,24.4
2018-07-06T01:51:43.162Z,24.4
2018-07-06T01:52:33.061Z,24.4
2018-07-06T01:53:23.856Z,24.4
2018-07-06T01:54:12.808Z,24.4
2018-07-06T01:55:03.141Z,24.4
2018-07-06T01:55:52.621Z,24.4
2018-07-06T01:56:42.904Z,24.4
2018-07-06T01:57:33.610Z,24.4
2018-07-06T01:58:22.842Z,24.4
2018-07-06T01:59:13.655Z,24.4
2018-07-06T02:00:04.566Z,24.4
2018-07-06T02:00:54.084Z,24.4
2018-07-06T02:01:44.964Z,24.4
2018-07-06T02:02:34.155Z,24.4
2018-07-06T02:03:24.529Z,24.4
2018-07-06T02:04:14.588Z,24.4
2018-07-06T02:05:04.123Z,24.4
2018-07-06T02:05:54.476Z,24.4
2018-07-06T02:06:43.916Z,24.4
2018-07-06T02:07:34.279Z,24.4
2018-07-06T02:08:24.522Z,24.4
2018-07-06T02:09:14.690Z,24.4
2018-07-06T02:10:05.302Z,24.4
2018-07-06T02:10:54.535Z,24.4
2018-07-06T02:11:45.494Z,24.4
2018-07-06T02:12:34.767Z,24.4
2018-07-06T02:13:25.062Z,24.4
2018-07-06T02:14:14.859Z,24.4
2018-07-06T02:15:05.373Z,24.4
2018-07-06T02:15:55.495Z,24.4
2018-07-06T02:16:45.824Z,24.4
2018-07-06T02:17:35.007Z,24.4
2018-07-06T02:18:25.627Z,24.4
2018-07-06T02:19:16.017Z,24.4
2018-07-06T02:20:05.468Z,24.4
2018-07-06T02:20:56.124Z,24.4
2018-07-06T02:21:46.058Z,24.4
2018-07-06T02:22:35.636Z,24.4
2018-07-06T02:23:26.038Z,24.4
2018-07-06T02:24:15.898Z,24.4
2018-07-06T02:25:05.650Z,24.4
2018-07-06T02:25:56.001Z,24.4
2018-07-06T02:26:46.124Z,24.4
2018-07-06T02:27:35.604Z,24.4
2018-07-06T02:28:25.996Z,24.4
2018-07-06T02:29:15.999Z,24.4
2018-07-06T02:30:06.697Z,24.4
2018-07-06T02:30:56.439Z,24.4
2018-07-06T02:31:46.851Z,24.4
2018-07-06T02:32:36.316Z,24.4
2018-07-06T02:33:26.066Z,24.4
2018-07-06T02:34:17.015Z,24.4
2018-07-06T02:35:06.461Z,24.4
2018-07-06T02:35:56.570Z,24.4
2018-07-06T02:36:47.194Z,24.4
2018-07-06T02:37:36.660Z,24.4
2018-07-06T02:38:27.631Z,24.4
2018-07-06T02:39:17.605Z,24.4
2018-07-06T02:40:07.718Z,24.4
2018-07-06T02:40:57.299Z,24.4
2018-07-06T02:41:47.522Z,24.4
2018-07-06T02:42:36.806Z,24.4
2018-07-06T02:43:27.103Z,24.4
2018-07-06T02:44:17.996Z,24.4
2018-07-06T02:45:07.531Z,24.4
2018-07-06T02:45:58.152Z,24.4
2018-07-06T02:46:47.613Z,24.4
2018-07-06T02:47:37.677Z,24.4
2018-07-06T02:48:27.740Z,24.4
2018-07-06T02:49:18.185Z,24.4
2018-07-06T02:50:08.812Z,24.4
2018-07-06T02:50:58.227Z,24.4
2018-07-06T02:51:48.375Z,24.4
2018-07-06T02:52:38.714Z,24.4
2018-07-06T02:53:26.839Z,24.4
2018-07-06T02:54:17.530Z,24.4
2018-07-06T02:55:08.935Z,24.4
2018-07-06T02:55:58.436Z,24.4
2018-07-06T02:56:48.675Z,24.4
2018-07-06T02:57:37.472Z,24.4
2018-07-06T02:58:27.872Z,24.4
2018-07-06T02:59:17.869Z,24.4
2018-07-06T03:00:08.129Z,24.3
2018-07-06T03:00:58.538Z,24.4
2018-07-06T03:01:48.756Z,24.3
2018-07-06T03:02:39.381Z,24.4
2018-07-06T03:03:29.204Z,24.3
2018-07-06T03:04:18.428Z,24.4
2018-07-06T03:05:09.413Z,24.4
2018-07-06T03:05:59.112Z,24.4
2018-07-06T03:06:49.781Z,24.4
2018-07-06T03:07:40.056Z,24.3
2018-07-06T03:08:30.071Z,24.4
2018-07-06T03:09:19.119Z,24.3
2018-07-06T03:10:09.625Z,24.3
2018-07-06T03:10:59.494Z,24.3
2018-07-06T03:11:49.546Z,24.3
2018-07-06T03:12:40.123Z,24.3
2018-07-06T03:13:29.743Z,24.3
2018-07-06T03:14:20.688Z,24.3
2018-07-06T03:15:10.476Z,24.3
2018-07-06T03:16:00.265Z,24.3
2018-07-06T03:16:50.056Z,24.3
2018-07-06T03:17:40.324Z,24.3
2018-07-06T03:18:29.568Z,24.3
2018-07-06T03:19:19.588Z,24.3
2018-07-06T03:20:09.741Z,24.3
2018-07-06T03:21:00.660Z,24.3
2018-07-06T03:21:49.844Z,24.3
2018-07-06T03:22:39.903Z,24.3
2018-07-06T03:23:30.994Z,24.3
2018-07-06T03:24:20.826Z,24.3
2018-07-06T03:25:26.428Z,24.3
2018-07-06T03:26:00.406Z,24.3
2018-07-06T03:26:50.206Z,24.3
2018-07-06T03:27:39.652Z,24.3
2018-07-06T03:28:34.229Z,24.3
2018-07-06T03:29:20.905Z,24.3
2018-07-06T03:30:11.338Z,24.3
2018-07-06T03:31:01.773Z,24.3
2018-07-06T03:31:50.684Z,24.3
2018-07-06T03:32:41.742Z,24.3
2018-07-06T03:33:30.657Z,24.3
2018-07-06T03:34:20.439Z,24.3
2018-07-06T03:35:11.202Z,24.3
2018-07-06T03:36:01.951Z,24.3
2018-07-06T03:36:52.090Z,24.3
2018-07-06T03:37:41.256Z,24.3
2018-07-06T03:38:31.946Z,24.3
2018-07-06T03:39:21.950Z,24.3
2018-07-06T03:40:11.467Z,24.3
2018-07-06T03:41:01.024Z,24.3
2018-07-06T03:41:51.857Z,24.3
2018-07-06T03:42:41.650Z,24.3
2018-07-06T03:43:32.264Z,24.3
2018-07-06T03:44:21.043Z,24.3
2018-07-06T03:45:12.700Z,24.3
2018-07-06T03:46:02.745Z,24.3
2018-07-06T03:46:51.254Z,24.3
2018-07-06T03:47:42.332Z,24.3
2018-07-06T03:48:32.940Z,24.3
2018-07-06T03:49:23.251Z,24.3
2018-07-06T03:50:11.514Z,24.3
2018-07-06T03:51:02.092Z,24.3
2018-07-06T03:51:52.696Z,24.3
2018-07-06T03:52:42.821Z,24.3
2018-07-06T03:53:32.294Z,24.3
2018-07-06T03:54:23.190Z,24.3
2018-07-06T03:55:13.521Z,24.3
2018-07-06T03:56:03.275Z,24.3
2018-07-06T03:56:52.402Z,24.3
2018-07-06T03:57:42.341Z,24.3
2018-07-06T03:58:32.337Z,24.3
2018-07-06T03:59:23.255Z,24.3
2018-07-06T04:00:13.203Z,24.3
2018-07-06T04:01:03.876Z,24.3
2018-07-06T04:01:52.720Z,24.3
2018-07-06T04:02:43.539Z,24.3
2018-07-06T04:03:33.675Z,24.3
2018-07-06T04:04:22.644Z,24.3
2018-07-06T04:05:13.692Z,24.3
2018-07-06T04:06:03.319Z,24.3
2018-07-06T04:06:53.890Z,24.3
2018-07-06T04:07:43.683Z,24.3
2018-07-06T04:08:33.170Z,24.3
2018-07-06T04:09:25.255Z,24.3
2018-07-06T04:10:13.507Z,24.3
2018-07-06T04:11:04.514Z,24.3
2018-07-06T04:11:54.313Z,24.3
2018-07-06T04:12:44.337Z,24.3
2018-07-06T04:13:32.964Z,24.3
2018-07-06T04:14:24.653Z,24.3
2018-07-06T04:15:14.201Z,24.3
2018-07-06T04:16:05.927Z,24.3
2018-07-06T04:16:54.319Z,24.3
2018-07-06T04:17:44.413Z,24.3
2018-07-06T04:18:34.684Z,24.3
2018-07-06T04:19:24.532Z,24.3
2018-07-06T04:20:15.164Z,24.3
2018-07-06T04:21:04.672Z,24.3
2018-07-06T04:21:54.223Z,24.3
2018-07-06T04:22:45.149Z,24.3
2018-07-06T04:23:33.784Z,24.3
2018-07-06T04:24:25.188Z,24.3
2018-07-06T04:25:15.013Z,24.3
2018-07-06T04:26:04.783Z,24.3
2018-07-06T04:26:54.118Z,24.3
2018-07-06T04:27:44.682Z,24.3
2018-07-06T04:28:35.356Z,24.3
2018-07-06T04:29:25.920Z,24.3
2018-07-06T04:30:15.136Z,24.3
2018-07-06T04:31:05.200Z,24.3
2018-07-06T04:31:56.100Z,24.3
2018-07-06T04:32:45.635Z,24.3
2018-07-06T04:33:35.630Z,24.3
2018-07-06T04:34:25.792Z,24.3
2018-07-06T04:35:15.828Z,24.3
2018-07-06T04:36:05.602Z,24.3
2018-07-06T04:36:55.694Z,24.3
2018-07-06T04:37:45.788Z,24.3
2018-07-06T04:38:36.065Z,24.3
2018-07-06T04:39:26.127Z,24.3
2018-07-06T04:40:15.885Z,24.3
2018-07-06T04:41:06.857Z,24.3
2018-07-06T04:41:56.032Z,24.3
2018-07-06T04:42:46.682Z,24.3
2018-07-06T04:43:36.448Z,24.3
2018-07-06T04:44:26.837Z,24.3
2018-07-06T04:45:16.350Z,24.3
2018-07-06T04:46:06.391Z,24.3
2018-07-06T04:46:55.717Z,24.3
2018-07-06T04:47:46.877Z,24.3
2018-07-06T04:48:36.842Z,24.3
2018-07-06T04:49:26.693Z,24.3
2018-07-06T04:50:16.453Z,24.3
2018-07-06T04:51:08.298Z,24.3
2018-07-06T04:51:57.377Z,24.3
2018-07-06T04:52:47.545Z,24.3
2018-07-06T04:53:37.820Z,24.3
2018-07-06T04:54:26.995Z,24.3
2018-07-06T04:55:17.033Z,24.3
2018-07-06T04:56:07.672Z,24.3
2018-07-06T04:56:57.233Z,24.3
2018-07-06T04:57:47.070Z,24.3
2018-07-06T04:58:36.812Z,24.3
2018-07-06T04:59:25.756Z,24.3
2018-07-06T05:00:17.740Z,24.3
2018-07-06T05:01:07.000Z,24.3
2018-07-06T05:01:57.277Z,24.3
2018-07-06T05:02:48.305Z,24.3
2018-07-06T05:03:37.290Z,24.3
2018-07-06T05:04:28.067Z,24.3
2018-07-06T05:05:17.300Z,24.3
2018-07-06T05:06:07.725Z,24.3
2018-07-06T05:06:57.484Z,24.3
2018-07-06T05:07:48.352Z,24.3
2018-07-06T05:08:37.331Z,24.3
2018-07-06T05:09:27.446Z,24.3
2018-07-06T05:10:18.113Z,24.3
2018-07-06T05:11:07.565Z,24.3
2018-07-06T05:11:58.149Z,24.3
2018-07-06T05:12:48.263Z,24.3
2018-07-06T05:13:37.907Z,24.3
2018-07-06T05:14:28.405Z,24.3
2018-07-06T05:15:18.200Z,24.3
2018-07-06T05:16:08.982Z,24.3
2018-07-06T05:16:59.928Z,24.3
2018-07-06T05:17:48.592Z,24.3
2018-07-06T05:18:39.459Z,24.3
2018-07-06T05:19:29.507Z,24.3
2018-07-06T05:20:18.985Z,24.3
2018-07-06T05:21:09.398Z,24.3
2018-07-06T05:21:59.139Z,24.3
2018-07-06T05:22:50.044Z,24.3
2018-07-06T05:23:39.294Z,24.3
2018-07-06T05:24:29.692Z,24.4
2018-07-06T05:25:19.253Z,24.3
2018-07-06T05:26:09.493Z,24.4
2018-07-06T05:26:59.506Z,24.4
2018-07-06T05:27:50.469Z,24.3
2018-07-06T05:28:40.052Z,24.3
2018-07-06T05:29:29.156Z,24.3
2018-07-06T05:30:20.061Z,24.4
2018-07-06T05:31:10.362Z,24.4
2018-07-06T05:32:01.383Z,24.4
2018-07-06T05:32:50.038Z,24.4
2018-07-06T05:33:40.306Z,24.4
2018-07-06T05:34:30.672Z,24.4
2018-07-06T05:35:20.987Z,24.4
2018-07-06T05:36:10.248Z,24.4
2018-07-06T05:37:01.119Z,24.4
2018-07-06T05:37:51.170Z,24.4
2018-07-06T05:38:40.460Z,24.4
2018-07-06T05:39:30.763Z,24.4
2018-07-06T05:40:21.401Z,24.4
2018-07-06T05:41:10.374Z,24.4
2018-07-06T05:42:00.960Z,24.4
2018-07-06T05:42:51.315Z,24.4
2018-07-06T05:43:40.930Z,24.4
2018-07-06T05:44:31.129Z,24.4
2018-07-06T05:45:21.076Z,24.4
2018-07-06T05:46:11.301Z,24.4
2018-07-06T05:47:00.316Z,24.4
2018-07-06T05:47:51.195Z,24.4
2018-07-06T05:48:41.360Z,24.4
2018-07-06T05:49:30.891Z,24.4
2018-07-06T05:50:20.853Z,24.4
2018-07-06T05:51:12.221Z,24.4
2018-07-06T05:52:02.084Z,24.4
2018-07-06T05:52:52.213Z,24.4
2018-07-06T05:53:41.945Z,24.4
2018-07-06T05:54:31.436Z,24.4
2018-07-06T05:55:20.922Z,24.4
2018-07-06T05:56:11.909Z,24.4
2018-07-06T05:57:01.867Z,24.4
2018-07-06T05:57:51.957Z,24.4
2018-07-06T05:58:41.788Z,24.4
2018-07-06T05:59:32.373Z,24.4
2018-07-06T06:00:22.691Z,24.4
2018-07-06T06:01:11.638Z,24.4
2018-07-06T06:02:02.297Z,24.4
2018-07-06T06:02:53.175Z,24.4
2018-07-06T06:03:42.363Z,24.4
2018-07-06T06:04:32.583Z,24.4
2018-07-06T06:05:22.297Z,24.4
2018-07-06T06:06:13.401Z,24.4
2018-07-06T06:07:02.967Z,24.4
2018-07-06T06:07:52.164Z,24.4
2018-07-06T06:08:43.246Z,24.4
2018-07-06T06:09:32.939Z,24.4
2018-07-06T06:10:22.698Z,24.4
2018-07-06T06:11:12.745Z,24.4
2018-07-06T06:12:03.314Z,24.4
2018-07-06T06:12:52.917Z,24.4
2018-07-06T06:13:42.745Z,24.4
2018-07-06T06:14:32.677Z,24.4
2018-07-06T06:15:22.357Z,24.4
2018-07-06T06:16:12.809Z,24.4
2018-07-06T06:17:03.991Z,24.4
2018-07-06T06:17:54.028Z,24.4
2018-07-06T06:18:47.021Z,24.4
2018-07-06T06:19:33.613Z,24.4
2018-07-06T06:20:23.360Z,24.4
2018-07-06T06:21:13.460Z,24.4
2018-07-06T06:22:03.830Z,24.4
2018-07-06T06:22:54.455Z,24.4
2018-07-06T06:23:44.493Z,24.5
2018-07-06T06:24:34.710Z,24.4
2018-07-06T06:25:24.518Z,24.4
2018-07-06T06:26:14.410Z,24.5
2018-07-06T06:27:03.657Z,24.5
2018-07-06T06:27:54.583Z,24.4
2018-07-06T06:28:43.750Z,24.4
2018-07-06T06:29:34.721Z,24.5
2018-07-06T06:30:23.987Z,24.4
2018-07-06T06:31:13.587Z,24.5
2018-07-06T06:32:05.205Z,24.4
2018-07-06T06:32:56.173Z,24.5
2018-07-06T06:33:48.078Z,24.4
2018-07-06T06:34:35.630Z,24.5
2018-07-06T06:35:24.569Z,24.5
2018-07-06T06:36:14.392Z,24.4
2018-07-06T06:37:05.537Z,24.5
2018-07-06T06:37:54.728Z,24.5
2018-07-06T06:38:45.041Z,24.5
2018-07-06T06:39:36.299Z,24.5
2018-07-06T06:40:25.218Z,24.4
2018-07-06T06:41:15.553Z,24.5
2018-07-06T06:42:05.653Z,24.5
2018-07-06T06:42:55.380Z,24.5
2018-07-06T06:43:45.541Z,24.5
2018-07-06T06:44:35.846Z,24.5
2018-07-06T06:45:25.460Z,24.5
2018-07-06T06:46:15.964Z,24.5
2018-07-06T06:47:05.440Z,24.5
2018-07-06T06:47:55.615Z,24.5
2018-07-06T06:48:46.369Z,24.5
2018-07-06T06:49:35.658Z,24.6
2018-07-06T06:50:26.046Z,24.5
2018-07-06T06:51:16.357Z,24.5
2018-07-06T06:52:05.573Z,24.5
2018-07-06T06:52:56.209Z,24.6
2018-07-06T06:53:45.922Z,24.6
2018-07-06T06:54:36.575Z,24.5
2018-07-06T06:55:26.158Z,24.6
2018-07-06T06:56:16.528Z,24.6
2018-07-06T06:57:06.779Z,24.6
2018-07-06T06:57:56.266Z,24.6
2018-07-06T06:58:47.452Z,24.6
2018-07-06T06:59:37.249Z,24.6
2018-07-06T07:00:35.462Z,24.6
2018-07-06T07:01:17.252Z,24.6
2018-07-06T07:02:06.662Z,24.6
2018-07-06T07:02:57.061Z,24.6
2018-07-06T07:03:46.742Z,24.6
2018-07-06T07:04:37.411Z,24.6
2018-07-06T07:05:27.070Z,24.6
2018-07-06T07:06:17.625Z,24.6
2018-07-06T07:07:07.029Z,24.6
2018-07-06T07:07:57.977Z,24.6
2018-07-06T07:08:48.095Z,24.6
2018-07-06T07:09:37.650Z,24.6
2018-07-06T07:10:27.531Z,24.6
2018-07-06T07:11:17.457Z,24.6
2018-07-06T07:12:08.552Z,24.6
2018-07-06T07:12:57.512Z,24.6
2018-07-06T07:13:49.120Z,24.6
2018-07-06T07:14:37.399Z,24.6
2018-07-06T07:15:28.165Z,24.6
2018-07-06T07:16:17.623Z,24.6
2018-07-06T07:17:08.014Z,24.6
2018-07-06T07:17:57.757Z,24.6
2018-07-06T07:18:48.668Z,24.6
2018-07-06T07:19:38.751Z,24.6
2018-07-06T07:20:27.049Z,24.6
2018-07-06T07:21:17.492Z,24.6
2018-07-06T07:22:08.519Z,24.6
2018-07-06T07:22:58.064Z,24.7
2018-07-06T07:23:49.634Z,24.6
2018-07-06T07:24:37.824Z,24.7
2018-07-06T07:25:28.724Z,24.6
2018-07-06T07:26:18.602Z,24.6
2018-07-06T07:27:09.137Z,24.7
2018-07-06T07:27:59.521Z,24.7
2018-07-06T07:28:49.342Z,24.7
2018-07-06T07:29:39.406Z,24.7
2018-07-06T07:30:29.354Z,24.7
2018-07-06T07:31:19.712Z,24.7
2018-07-06T07:32:09.763Z,24.7
2018-07-06T07:33:00.123Z,24.7
2018-07-06T07:33:49.078Z,24.7
2018-07-06T07:34:39.454Z,24.7
2018-07-06T07:35:29.754Z,24.7
2018-07-06T07:36:20.056Z,24.7
2018-07-06T07:37:10.698Z,24.7
2018-07-06T07:37:59.279Z,24.7
2018-07-06T07:38:50.094Z,24.7
2018-07-06T07:39:40.429Z,24.7
2018-07-06T07:40:30.481Z,24.7
2018-07-06T07:41:20.703Z,24.7
2018-07-06T07:42:10.346Z,24.7
2018-07-06T07:43:00.139Z,24.7
2018-07-06T07:43:50.210Z,24.7
2018-07-06T07:44:40.000Z,24.8
2018-07-06T07:45:31.775Z,24.8
2018-07-06T07:46:21.939Z,24.7
2018-07-06T07:47:11.546Z,24.8
2018-07-06T07:48:00.803Z,24.7
2018-07-06T07:48:50.871Z,24.8
2018-07-06T07:49:41.419Z,24.8
2018-07-06T07:50:31.451Z,24.8
2018-07-06T07:51:21.055Z,24.8
2018-07-06T07:53:00.895Z,24.8
2018-07-06T07:53:51.710Z,24.8
2018-07-06T07:54:43.363Z,24.8
2018-07-06T07:55:31.341Z,24.8
2018-07-06T07:56:21.914Z,24.8
2018-07-06T07:57:11.128Z,24.8
2018-07-06T07:58:02.080Z,24.8
2018-07-06T07:58:51.632Z,24.8
2018-07-06T07:59:41.700Z,24.8
2018-07-06T08:00:35.150Z,24.8
2018-07-06T08:01:26.755Z,24.8
2018-07-06T08:02:12.684Z,24.8
2018-07-06T08:03:02.809Z,24.8
2018-07-06T08:03:51.963Z,24.8
2018-07-06T08:04:42.073Z,24.8
2018-07-06T08:05:33.023Z,24.8
2018-07-06T08:06:22.761Z,24.8
2018-07-06T08:07:13.528Z,24.8
2018-07-06T08:08:03.228Z,24.8
2018-07-06T08:08:52.747Z,24.8
2018-07-06T08:09:42.479Z,24.8
2018-07-06T08:10:31.996Z,24.8
2018-07-06T08:11:22.873Z,24.8
2018-07-06T08:12:12.695Z,24.8
2018-07-06T08:13:03.203Z,24.8
2018-07-06T08:13:53.385Z,24.8
2018-07-06T08:14:43.938Z,24.8
2018-07-06T08:15:33.250Z,24.8
2018-07-06T08:16:23.480Z,24.8
2018-07-06T08:17:13.627Z,24.8
2018-07-06T08:18:03.887Z,24.8
2018-07-06T08:18:53.719Z,24.8
2018-07-06T08:19:44.070Z,24.8
2018-07-06T08:20:33.530Z,24.8
2018-07-06T08:21:24.293Z,24.8
2018-07-06T08:22:14.539Z,24.8
2018-07-06T08:23:03.838Z,24.8
2018-07-06T08:23:54.105Z,24.8
2018-07-06T08:24:43.353Z,24.8
2018-07-06T08:25:36.317Z,24.9
2018-07-06T08:26:23.749Z,24.8
2018-07-06T08:27:14.956Z,24.8
2018-07-06T08:28:04.482Z,24.8
2018-07-06T08:28:54.522Z,24.8
2018-07-06T08:29:44.277Z,24.8
2018-07-06T08:30:35.060Z,24.8
2018-07-06T08:31:24.730Z,24.8
2018-07-06T08:32:14.785Z,24.8
2018-07-06T08:33:03.549Z,24.8
2018-07-06T08:33:54.932Z,24.8
2018-07-06T08:34:44.975Z,24.8
2018-07-06T08:35:33.908Z,24.8
2018-07-06T08:36:24.550Z,24.8
2018-07-06T08:37:15.797Z,24.8
2018-07-06T08:38:04.898Z,24.8
2018-07-06T08:38:54.700Z,24.8
2018-07-06T08:39:46.355Z,24.8
2018-07-06T08:40:36.014Z,24.8
2018-07-06T08:41:25.210Z,24.8
2018-07-06T08:42:16.134Z,24.8
2018-07-06T08:43:05.624Z,24.8
2018-07-06T08:43:54.610Z,24.9
2018-07-06T08:44:45.213Z,24.8
2018-07-06T08:45:35.293Z,24.8
2018-07-06T08:46:24.761Z,24.8
2018-07-06T08:47:16.193Z,24.8
2018-07-06T08:48:05.763Z,24.8
2018-07-06T08:48:55.547Z,24.8
2018-07-06T08:49:45.611Z,24.8
2018-07-06T08:50:35.213Z,24.8
2018-07-06T08:51:26.894Z,24.8
2018-07-06T08:52:14.298Z,24.9
2018-07-06T08:53:05.951Z,24.9
2018-07-06T08:53:55.922Z,24.8
2018-07-06T08:54:47.017Z,24.9
2018-07-06T08:55:36.727Z,24.9
2018-07-06T08:56:26.394Z,24.8
2018-07-06T08:57:16.726Z,24.8
2018-07-06T08:58:06.759Z,24.9
2018-07-06T08:58:57.508Z,24.8
2018-07-06T08:59:46.696Z,24.9
2018-07-06T09:00:37.006Z,24.9
2018-07-06T09:01:25.946Z,24.9
2018-07-06T09:02:16.366Z,24.9
2018-07-06T09:03:06.966Z,24.8
2018-07-06T09:03:57.284Z,24.9
2018-07-06T09:04:48.129Z,24.9
2018-07-06T09:05:37.460Z,24.9
2018-07-06T09:06:26.638Z,24.9
2018-07-06T09:07:16.997Z,24.9
2018-07-06T09:08:07.118Z,24.9
2018-07-06T09:08:57.710Z,24.9
2018-07-06T09:09:47.716Z,24.9
2018-07-06T09:10:36.713Z,24.9
2018-07-06T09:11:27.608Z,24.9
2018-07-06T09:12:16.825Z,24.9
2018-07-06T09:13:09.873Z,24.9
2018-07-06T09:13:57.497Z,24.9
2018-07-06T09:14:48.695Z,24.9
2018-07-06T09:15:37.471Z,24.9
2018-07-06T09:16:28.022Z,24.9
2018-07-06T09:17:18.886Z,24.9
2018-07-06T09:18:08.742Z,24.9
2018-07-06T09:18:57.380Z,24.9
2018-07-06T09:19:54.016Z,24.9
2018-07-06T09:20:38.109Z,24.9
2018-07-06T09:21:28.052Z,24.9
2018-07-06T09:22:18.048Z,24.9
2018-07-06T09:23:08.377Z,24.9
2018-07-06T09:23:58.277Z,24.9
2018-07-06T09:24:48.788Z,24.9
2018-07-06T09:25:41.871Z,24.9
2018-07-06T09:26:29.941Z,24.9
2018-07-06T09:27:19.101Z,24.9
2018-07-06T09:28:08.600Z,24.9
2018-07-06T09:28:59.810Z,24.9
2018-07-06T09:29:49.845Z,24.9
2018-07-06T09:30:39.922Z,24.9
2018-07-06T09:31:29.855Z,24.9
2018-07-06T09:32:20.274Z,24.9
2018-07-06T09:33:09.145Z,24.9
2018-07-06T09:33:59.266Z,24.9
2018-07-06T09:34:49.723Z,24.9
2018-07-06T09:35:39.801Z,24.9
2018-07-06T09:36:29.525Z,24.9
2018-07-06T09:37:19.914Z,24.9
2018-07-06T09:38:10.228Z,24.9
2018-07-06T09:39:00.794Z,24.9
2018-07-06T09:39:50.122Z,24.9
2018-07-06T09:40:40.451Z,24.9
2018-07-06T09:41:30.494Z,24.9
2018-07-06T09:42:20.700Z,24.9
2018-07-06T09:43:10.073Z,24.9
2018-07-06T09:44:01.302Z,24.9
2018-07-06T09:44:50.006Z,24.9
2018-07-06T09:45:40.430Z,24.9
2018-07-06T09:46:30.688Z,24.9
2018-07-06T09:47:21.320Z,24.9
2018-07-06T09:48:10.808Z,24.9
2018-07-06T09:49:00.845Z,24.9
2018-07-06T09:49:50.847Z,24.9
2018-07-06T09:50:41.148Z,24.9
2018-07-06T09:51:31.031Z,24.9
2018-07-06T09:52:21.353Z,24.9
2018-07-06T09:53:11.754Z,24.9
2018-07-06T09:54:01.529Z,24.9
2018-07-06T09:54:51.049Z,24.9
2018-07-06T09:55:41.367Z,24.9
2018-07-06T09:56:31.134Z,24.9
2018-07-06T09:57:21.215Z,24.9
2018-07-06T09:58:12.937Z,24.9
2018-07-06T09:59:01.884Z,24.9
2018-07-06T09:59:51.715Z,24.9
2018-07-06T10:00:41.448Z,24.9
2018-07-06T10:01:32.079Z,24.9
2018-07-06T10:02:21.919Z,24.9
2018-07-06T10:03:11.387Z,24.9
2018-07-06T10:04:02.243Z,24.9
2018-07-06T10:04:52.129Z,24.9
2018-07-06T10:05:43.202Z,24.9
2018-07-06T10:06:32.232Z,24.9
2018-07-06T10:07:22.359Z,24.9
2018-07-06T10:08:12.152Z,24.9
2018-07-06T10:09:02.544Z,24.9
2018-07-06T10:09:52.861Z,24.9
2018-07-06T10:10:42.844Z,24.9
2018-07-06T10:11:32.708Z,24.9
2018-07-06T10:12:22.396Z,24.9
2018-07-06T10:13:12.168Z,24.9
2018-07-06T10:14:02.535Z,24.9
2018-07-06T10:14:53.112Z,24.9
2018-07-06T10:15:42.363Z,24.9
2018-07-06T10:16:32.757Z,24.9
2018-07-06T10:17:23.054Z,24.9
2018-07-06T10:18:13.108Z,24.9
2018-07-06T10:19:02.954Z,24.9
2018-07-06T10:19:51.562Z,24.9
2018-07-06T10:20:43.288Z,24.9
2018-07-06T10:21:33.408Z,24.9
2018-07-06T10:22:23.247Z,24.9
2018-07-06T10:23:13.815Z,24.9
2018-07-06T10:24:03.303Z,24.9
2018-07-06T10:24:52.869Z,24.9
2018-07-06T10:25:43.939Z,25
2018-07-06T10:26:33.304Z,24.9
2018-07-06T10:27:23.865Z,25
2018-07-06T10:28:13.938Z,24.9
2018-07-06T10:29:04.254Z,24.9
2018-07-06T10:29:54.058Z,25
2018-07-06T10:30:44.172Z,24.9
2018-07-06T10:31:33.689Z,25
2018-07-06T10:32:24.557Z,25
2018-07-06T10:33:15.719Z,25
2018-07-06T10:34:05.804Z,25
2018-07-06T10:34:53.955Z,25
2018-07-06T10:35:45.041Z,25
2018-07-06T10:36:34.334Z,25
2018-07-06T10:37:24.892Z,25
2018-07-06T10:38:14.964Z,25
2018-07-06T10:39:04.703Z,25
2018-07-06T10:39:58.830Z,25
2018-07-06T10:40:44.362Z,24.9
2018-07-06T10:41:35.450Z,25
2018-07-06T10:42:24.979Z,25
2018-07-06T10:43:15.592Z,25
2018-07-06T10:44:05.683Z,25
2018-07-06T10:44:55.490Z,25
2018-07-06T10:45:45.532Z,25
2018-07-06T10:46:34.762Z,25
2018-07-06T10:47:24.901Z,25
2018-07-06T10:48:14.889Z,25
2018-07-06T10:49:06.067Z,25
2018-07-06T10:49:55.648Z,25
2018-07-06T10:50:45.745Z,25
2018-07-06T10:51:36.061Z,25
2018-07-06T10:52:26.103Z,25
2018-07-06T10:53:15.299Z,25
2018-07-06T10:54:05.903Z,25
2018-07-06T10:54:56.600Z,25
2018-07-06T10:55:46.365Z,25
2018-07-06T10:56:36.124Z,25
2018-07-06T10:57:26.448Z,25
2018-07-06T10:58:16.295Z,25
2018-07-06T10:59:05.748Z,25
2018-07-06T10:59:56.978Z,25
2018-07-06T11:00:45.609Z,25
2018-07-06T11:01:36.322Z,25
2018-07-06T11:02:26.325Z,25
2018-07-06T11:03:16.406Z,25
2018-07-06T11:04:06.992Z,25
2018-07-06T11:04:57.495Z,25
2018-07-06T11:05:46.376Z,25
2018-07-06T11:06:37.145Z,25
2018-07-06T11:07:27.541Z,25
2018-07-06T11:08:17.047Z,25
2018-07-06T11:09:07.700Z,25
2018-07-06T11:09:56.090Z,25